createdAt,value
2023-02-22T00:00:27.207Z,85
2023-02-22T00:05:44.747Z,87
2023-02-22T00:11:01.376Z,89
2023-02-22T00:16:19.313Z,87
2023-02-22T00:21:35.882Z,94
2023-02-22T00:26:51.896Z,92
2023-02-22T00:32:08.444Z,94
2023-02-22T00:37:25.334Z,94
2023-02-22T00:42:41.949Z,93
2023-02-22T00:47:59.406Z,91
2023-02-22T00:53:16.267Z,96
2023-02-22T00:58:32.979Z,93
2023-02-22T01:03:49.957Z,95
2023-02-22T01:09:06.455Z,93
2023-02-22T01:14:23.031Z,96
2023-02-22T01:19:39.757Z,100
2023-02-22T01:24:55.967Z,97
2023-02-22T01:30:12.282Z,89
2023-02-22T01:35:29.284Z,84
2023-02-22T01:40:46.480Z,87
2023-02-22T01:46:03.371Z,95
2023-02-22T01:51:19.897Z,94
2023-02-22T01:56:36.441Z,98
2023-02-22T02:01:53.293Z,99
2023-02-22T02:07:09.686Z,99
2023-02-22T02:12:26.650Z,102
2023-02-22T02:17:43.319Z,100
2023-02-22T02:22:59.587Z,101
2023-02-22T02:28:17.638Z,100
2023-02-22T02:33:33.935Z,104
2023-02-22T02:38:50.725Z,101
2023-02-22T02:44:07.494Z,102
2023-02-22T02:49:24.120Z,104
2023-02-22T02:54:41.194Z,105
2023-02-22T02:59:57.501Z,116
2023-02-22T03:05:14.589Z,126
2023-02-22T03:10:30.913Z,108
2023-02-22T03:15:47.345Z,103
2023-02-22T03:21:04.053Z,99
2023-02-22T03:26:20.569Z,100
2023-02-22T03:31:36.834Z,98
2023-02-22T03:36:53.995Z,100
2023-02-22T03:42:10.381Z,100
2023-02-22T03:47:27.679Z,96
2023-02-22T03:52:44.529Z,96
2023-02-22T03:58:01.377Z,97
2023-02-22T04:03:17.928Z,91
2023-02-22T04:08:34.339Z,92
2023-02-22T04:13:51.158Z,94
2023-02-22T04:19:07.843Z,87
2023-02-22T04:24:25.111Z,93
2023-02-22T04:29:41.513Z,89
2023-02-22T04:34:57.804Z,90
2023-02-22T04:40:14.023Z,92
2023-02-22T04:45:31.246Z,88
2023-02-22T04:50:48.083Z,94
2023-02-22T04:56:05.115Z,107
2023-02-22T05:01:21.661Z,98
2023-02-22T05:06:38.499Z,92
2023-02-22T05:11:55.334Z,90
2023-02-22T05:17:12.134Z,88
2023-02-22T05:22:28.355Z,88
2023-02-22T05:27:46.345Z,91
2023-02-22T05:33:03.155Z,93
2023-02-22T05:38:19.382Z,95
2023-02-22T05:43:35.662Z,103
2023-02-22T05:48:53.277Z,102
2023-02-22T05:54:10.252Z,96
2023-02-22T05:59:27.376Z,95
2023-02-22T06:04:44.110Z,105
2023-02-22T06:10:01.274Z,104
2023-02-22T06:15:17.529Z,109
2023-02-22T06:20:34.130Z,100
2023-02-22T06:25:51.392Z,113
2023-02-22T06:31:08.647Z,123
2023-02-22T06:36:25.104Z,112
2023-02-22T06:41:42.265Z,106
2023-02-22T06:46:58.775Z,108
2023-02-22T06:52:16.013Z,105
2023-02-22T06:57:33.144Z,112
2023-02-22T07:02:50.106Z,148
2023-02-22T07:08:07.144Z,121
2023-02-22T07:13:24.317Z,106
2023-02-22T07:18:40.640Z,102
2023-02-22T07:23:57.527Z,105
2023-02-22T07:29:14.581Z,102
2023-02-22T07:34:31.465Z,112
2023-02-22T07:39:48.245Z,126
2023-02-22T07:45:04.950Z,100
2023-02-22T07:50:21.333Z,119
2023-02-22T07:55:38.095Z,109
2023-02-22T08:00:54.575Z,112
2023-02-22T08:06:10.863Z,115
2023-02-22T08:11:27.794Z,116
2023-02-22T08:16:45.139Z,98
2023-02-22T08:22:01.717Z,114
2023-02-22T08:27:18.767Z,105
2023-02-22T08:32:35.738Z,87
2023-02-22T08:37:52.546Z,88
2023-02-22T08:43:09.496Z,81
2023-02-22T08:48:26.700Z,76
2023-02-22T08:53:43.730Z,68
2023-02-22T08:59:00.526Z,72
2023-02-22T09:04:17.186Z,68
2023-02-22T09:09:33.621Z,66
2023-02-22T09:14:49.793Z,61
2023-02-22T09:20:06.450Z,66
2023-02-22T09:25:23.698Z,68
2023-02-22T09:30:40.497Z,65
2023-02-22T09:35:57.052Z,64
2023-02-22T09:41:14.048Z,63
2023-02-22T09:46:30.563Z,64
2023-02-22T09:51:47.346Z,59
2023-02-22T09:57:04.185Z,59
2023-02-22T10:02:21.158Z,60
2023-02-22T10:07:38.149Z,62
2023-02-22T10:12:55.158Z,55
2023-02-22T10:18:11.492Z,66
2023-02-22T10:23:27.936Z,56
2023-02-22T10:28:45.039Z,51
2023-02-22T10:34:01.677Z,54
2023-02-22T10:39:18.171Z,51
2023-02-22T10:44:34.261Z,55
2023-02-22T10:49:51.444Z,54
2023-02-22T10:55:15.465Z,55
2023-02-22T11:00:24.961Z,56
2023-02-22T11:05:41.075Z,57
2023-02-22T11:10:57.477Z,52
2023-02-22T11:16:14.446Z,55
2023-02-22T11:21:30.591Z,55
2023-02-22T11:26:46.809Z,55
2023-02-22T11:32:03.760Z,55
2023-02-22T11:37:20.727Z,54
2023-02-22T11:42:38.432Z,53
2023-02-22T11:47:55.424Z,52
2023-02-22T11:53:12.158Z,54
2023-02-22T11:58:29.312Z,51
2023-02-22T12:03:45.587Z,55
2023-02-22T12:09:02.569Z,52
2023-02-22T12:14:19.048Z,48
2023-02-22T12:19:35.489Z,53
2023-02-22T12:24:58.039Z,54
2023-02-22T12:30:09.450Z,56
2023-02-22T12:35:25.975Z,50
2023-02-22T12:40:43.196Z,56
2023-02-22T12:46:00.258Z,56
2023-02-22T12:51:16.922Z,54
2023-02-22T12:56:33.761Z,55
2023-02-22T13:01:50.221Z,56
2023-02-22T13:07:06.588Z,54
2023-02-22T13:12:23.648Z,59
2023-02-22T13:17:40.427Z,55
2023-02-22T13:22:56.483Z,53
2023-02-22T13:28:13.229Z,51
2023-02-22T13:33:29.632Z,53
2023-02-22T13:38:46.663Z,56
2023-02-22T13:44:03.646Z,52
2023-02-22T13:49:19.840Z,58
2023-02-22T13:54:35.921Z,51
2023-02-22T13:59:52.845Z,56
2023-02-22T14:05:09.365Z,63
2023-02-22T14:10:26.372Z,69
2023-02-22T14:15:44.615Z,62
2023-02-22T14:21:00.155Z,62
2023-02-22T14:26:17.201Z,68
2023-02-22T14:31:36.969Z,53
2023-02-22T14:36:50.520Z,64
2023-02-22T14:42:07.369Z,58
2023-02-22T14:47:24.275Z,54
2023-02-22T14:52:40.409Z,59
2023-02-22T14:57:56.883Z,58
2023-02-22T15:03:13.021Z,62
2023-02-22T15:08:29.596Z,58
2023-02-22T15:13:45.774Z,63
2023-02-22T15:19:02.110Z,59
2023-02-22T15:24:18.823Z,58
2023-02-22T15:29:35.295Z,58
2023-02-22T15:34:51.463Z,58
2023-02-22T15:40:08.415Z,61
2023-02-22T15:45:25.315Z,60
2023-02-22T15:50:42.207Z,62
2023-02-22T15:55:59.439Z,62
2023-02-22T16:01:17.368Z,60
2023-02-22T16:06:33.543Z,67
2023-02-22T16:11:49.848Z,71
2023-02-22T16:17:06.250Z,63
2023-02-22T16:22:23.062Z,78
2023-02-22T16:27:41.291Z,72
2023-02-22T16:32:57.226Z,66
2023-02-22T16:38:13.606Z,73
2023-02-22T16:43:30.639Z,70
2023-02-22T16:48:47.466Z,76
2023-02-22T16:54:04.542Z,68
2023-02-22T16:59:20.891Z,78
2023-02-22T17:04:37.886Z,73
2023-02-22T17:09:54.322Z,89
2023-02-22T17:15:11.779Z,87
2023-02-22T17:20:28.785Z,75
2023-02-22T17:25:45.133Z,70
2023-02-22T17:31:02.539Z,73
2023-02-22T17:36:18.953Z,71
2023-02-22T17:41:35.850Z,68
2023-02-22T17:46:52.768Z,75
2023-02-22T17:52:09.486Z,86
2023-02-22T17:57:25.750Z,106
2023-02-22T18:02:42.745Z,84
2023-02-22T18:07:59.782Z,82
2023-02-22T18:13:16.313Z,82
2023-02-22T18:18:32.795Z,73
2023-02-22T18:23:49.770Z,83
2023-02-22T18:29:06.006Z,85
2023-02-22T18:34:23.213Z,84
2023-02-22T18:39:40.058Z,77
2023-02-22T18:44:57.302Z,82
2023-02-22T18:50:13.989Z,85
2023-02-22T18:55:31.233Z,87
2023-02-22T19:00:48.073Z,90
2023-02-22T19:06:04.618Z,86
2023-02-22T19:11:21.844Z,80
2023-02-22T19:16:38.171Z,79
2023-02-22T19:21:55.273Z,89
2023-02-22T19:27:12.195Z,93
2023-02-22T19:32:29.405Z,90
2023-02-22T19:37:46.383Z,90
2023-02-22T19:43:02.917Z,86
2023-02-22T19:48:18.813Z,84
2023-02-22T19:53:35.706Z,79
2023-02-22T19:58:52.810Z,82
2023-02-22T20:04:09.382Z,77
2023-02-22T20:09:26.329Z,76
2023-02-22T20:14:42.976Z,77
2023-02-22T20:19:59.789Z,78
2023-02-22T20:25:17.094Z,112
2023-02-22T20:30:33.629Z,79
2023-02-22T20:35:50.090Z,79
2023-02-22T20:41:06.338Z,86
2023-02-22T20:46:23.282Z,80
2023-02-22T20:51:40.343Z,80
2023-02-22T20:56:57.390Z,77
2023-02-22T21:02:13.906Z,78
2023-02-22T21:07:30.918Z,75
2023-02-22T21:12:47.492Z,76
2023-02-22T21:18:04.016Z,78
2023-02-22T21:23:20.455Z,74
2023-02-22T21:28:50.435Z,74
2023-02-22T21:33:54.311Z,77
2023-02-22T21:39:10.940Z,82
2023-02-22T21:44:27.391Z,79
2023-02-22T21:49:44.670Z,81
2023-02-22T21:55:02.170Z,88
2023-02-22T22:00:19.250Z,81
2023-02-22T22:05:35.437Z,80
2023-02-22T22:10:52.238Z,80
2023-02-22T22:16:09.112Z,80
2023-02-22T22:21:26.130Z,89
2023-02-22T22:26:43.036Z,84
2023-02-22T22:32:00.164Z,84
2023-02-22T22:37:16.296Z,84
2023-02-22T22:42:32.949Z,80
2023-02-22T22:47:49.456Z,86
2023-02-22T22:53:05.875Z,80
2023-02-22T22:58:22.960Z,83
2023-02-22T23:03:39.300Z,79
2023-02-22T23:08:56.311Z,78
2023-02-22T23:14:12.732Z,79
2023-02-22T23:19:29.263Z,76
2023-02-22T23:24:45.487Z,80
2023-02-22T23:30:02.549Z,82
2023-02-22T23:35:19.384Z,86
2023-02-22T23:40:36.496Z,82
2023-02-22T23:45:52.697Z,80
2023-02-22T23:51:09.269Z,79
2023-02-22T23:56:25.727Z,79
